Time;durP1;ratioP1;P1;durP2;ratioP2;P2;SDS_P1;SDS_P2;PMS_P1;PMS_P2;Temp;Humidity;BMP_temperature;BMP_pressure;BME280_temperature;BME280_humidity;BME280_pressure;Samples;Min_cycle;Max_cycle;Signal;HPM_P1;HPM_P2
2021/10/10 00:00:27;;;;;;;34.83;17.05;;;;;;;;;;5088811;28;20112;-87
2021/10/10 00:02:53;;;;;;;36.85;17.25;;;;;;;;;;5073109;28;20028;-87
2021/10/10 00:05:18;;;;;;;40.10;16.73;;;;;;;;;;5054611;28;20024;-87
2021/10/10 00:07:43;;;;;;;33.88;15.35;;;;;;;;;;5088769;28;20484;-88
2021/10/10 00:10:10;;;;;;;41.60;14.73;;;;;;;;;;5088425;28;20016;-88
2021/10/10 00:12:35;;;;;;;30.50;14.93;;;;;;;;;;5072957;28;20095;-88
2021/10/10 00:15:00;;;;;;;31.10;13.83;;;;;;;;;;5054851;28;20443;-88
2021/10/10 00:17:25;;;;;;;35.33;14.82;;;;;;;;;;5040412;28;20346;-88
2021/10/10 00:19:51;;;;;;;29.77;15.17;;;;;;;;;;5054627;28;20163;-87
2021/10/10 00:22:16;;;;;;;29.45;13.88;;;;;;;;;;5088619;28;20404;-87
2021/10/10 00:24:41;;;;;;;28.98;14.27;;;;;;;;;;5072845;28;20017;-87
2021/10/10 00:27:06;;;;;;;30.77;13.93;;;;;;;;;;5088563;28;20021;-88
2021/10/10 00:29:31;;;;;;;31.93;14.57;;;;;;;;;;5085322;28;20486;-88
2021/10/10 00:31:59;;;;;;;28.63;14.10;;;;;;;;;;5072825;28;20123;-88
2021/10/10 00:34:24;;;;;;;29.10;13.90;;;;;;;;;;5088491;28;20112;-87
2021/10/10 00:36:49;;;;;;;34.97;14.37;;;;;;;;;;5087573;28;20435;-87
2021/10/10 00:39:14;;;;;;;33.40;15.95;;;;;;;;;;5048856;28;20020;-88
2021/10/10 00:41:39;;;;;;;26.90;13.43;;;;;;;;;;5088156;28;20040;-87
2021/10/10 00:44:09;;;;;;;30.37;15.07;;;;;;;;;;5088151;28;20468;-88
2021/10/10 00:46:34;;;;;;;32.53;15.17;;;;;;;;;;5072435;28;20017;-88
2021/10/10 00:48:59;;;;;;;31.47;15.00;;;;;;;;;;5077177;28;20075;-87
2021/10/10 00:51:25;;;;;;;33.80;14.73;;;;;;;;;;5051552;28;20476;-88
2021/10/10 00:53:50;;;;;;;28.58;14.05;;;;;;;;;;5088465;28;20115;-87
2021/10/10 00:56:15;;;;;;;31.23;14.60;;;;;;;;;;5087373;28;20468;-88
2021/10/10 00:58:41;;;;;;;28.57;14.43;;;;;;;;;;5041495;28;20024;-88
2021/10/10 01:01:06;;;;;;;48.00;19.60;;;;;;;;;;5091516;28;20121;-88
2021/10/10 01:03:32;;;;;;;45.20;18.30;;;;;;;;;;5091936;28;20468;-88
2021/10/10 01:05:57;;;;;;;34.97;15.90;;;;;;;;;;5076069;28;20388;-87
2021/10/10 01:08:22;;;;;;;36.72;17.17;;;;;;;;;;5091581;28;20142;-87
2021/10/10 01:10:49;;;;;;;37.23;17.83;;;;;;;;;;5091567;28;20040;-87
2021/10/10 01:13:14;;;;;;;36.60;17.30;;;;;;;;;;5077596;28;20017;-88
2021/10/10 01:15:40;;;;;;;33.60;16.00;;;;;;;;;;5044108;28;20058;-88
2021/10/10 01:18:05;;;;;;;32.60;16.33;;;;;;;;;;5089406;28;20111;-88
2021/10/10 01:20:37;;;;;;;32.50;15.60;;;;;;;;;;5089791;28;20025;-88
2021/10/10 01:23:02;;;;;;;31.90;15.55;;;;;;;;;;5090099;28;20042;-88
2021/10/10 01:25:30;;;;;;;34.77;16.27;;;;;;;;;;5090022;28;20032;-88
2021/10/10 01:27:55;;;;;;;31.20;15.63;;;;;;;;;;5090299;28;20107;-88
2021/10/10 01:30:20;;;;;;;35.87;16.10;;;;;;;;;;5089444;28;20108;-88
2021/10/10 01:32:53;;;;;;;39.20;15.90;;;;;;;;;;5056406;28;20070;-88
2021/10/10 01:35:18;;;;;;;38.00;16.03;;;;;;;;;;5056352;28;20082;-88
2021/10/10 01:37:43;;;;;;;39.07;15.83;;;;;;;;;;5089736;28;20016;-88
2021/10/10 01:40:09;;;;;;;34.73;16.40;;;;;;;;;;5089544;28;20024;-88
2021/10/10 01:42:34;;;;;;;34.47;16.97;;;;;;;;;;5075141;28;20407;-88
2021/10/10 01:44:59;;;;;;;41.03;18.10;;;;;;;;;;5074017;28;20107;-88
2021/10/10 01:47:25;;;;;;;40.47;17.23;;;;;;;;;;5089304;28;20028;-87
2021/10/10 01:49:50;;;;;;;37.23;17.17;;;;;;;;;;5079648;28;20037;-88
2021/10/10 01:52:15;;;;;;;37.47;17.90;;;;;;;;;;5075535;28;20020;-88
2021/10/10 01:54:40;;;;;;;34.30;16.80;;;;;;;;;;5090827;28;20017;-88
2021/10/10 01:57:05;;;;;;;30.47;15.93;;;;;;;;;;5075144;28;20021;-88
2021/10/10 01:59:31;;;;;;;34.13;16.43;;;;;;;;;;5075191;28;20376;-88
2021/10/10 02:01:56;;;;;;;34.33;16.07;;;;;;;;;;5057491;28;20020;-87
2021/10/10 02:04:21;;;;;;;32.60;15.60;;;;;;;;;;5077039;28;20039;-88
2021/10/10 02:06:46;;;;;;;36.17;16.17;;;;;;;;;;5057171;28;20017;-88
2021/10/10 02:09:11;;;;;;;32.30;16.17;;;;;;;;;;5090596;28;20027;-87
2021/10/10 02:11:37;;;;;;;31.07;15.87;;;;;;;;;;5089920;28;20407;-88
2021/10/10 02:14:02;;;;;;;34.73;16.30;;;;;;;;;;5090378;28;20484;-88
2021/10/10 02:16:27;;;;;;;36.10;16.13;;;;;;;;;;5090172;28;20028;-87
2021/10/10 02:18:53;;;;;;;31.80;15.73;;;;;;;;;;5080104;28;20028;-88
2021/10/10 02:21:18;;;;;;;34.53;15.60;;;;;;;;;;5056864;28;20020;-88
2021/10/10 02:23:44;;;;;;;35.73;15.97;;;;;;;;;;5090500;28;20471;-88
2021/10/10 02:26:09;;;;;;;35.50;15.77;;;;;;;;;;5074856;28;20024;-88
2021/10/10 02:28:34;;;;;;;32.30;15.40;;;;;;;;;;5056898;28;20486;-88
2021/10/10 02:30:59;;;;;;;38.23;15.43;;;;;;;;;;5056665;28;20107;-88
2021/10/10 02:33:24;;;;;;;32.53;16.30;;;;;;;;;;5087448;28;20031;-87
2021/10/10 02:35:50;;;;;;;34.40;16.43;;;;;;;;;;5090410;28;20414;-88
2021/10/10 02:38:15;;;;;;;36.07;16.17;;;;;;;;;;5090373;28;20025;-88
2021/10/10 02:40:41;;;;;;;33.40;15.77;;;;;;;;;;5074502;28;20008;-88
2021/10/10 02:43:06;;;;;;;36.10;17.17;;;;;;;;;;5074577;28;20056;-88
2021/10/10 02:45:31;;;;;;;33.97;16.70;;;;;;;;;;5056029;28;20727;-88
2021/10/10 02:47:56;;;;;;;36.77;16.37;;;;;;;;;;5080866;28;20016;-88
2021/10/10 02:50:22;;;;;;;33.23;15.63;;;;;;;;;;5089845;28;20024;-88
2021/10/10 02:52:47;;;;;;;34.37;16.00;;;;;;;;;;5089976;28;20036;-88
2021/10/10 02:55:12;;;;;;;31.60;15.50;;;;;;;;;;5089897;28;20016;-88
2021/10/10 02:57:37;;;;;;;35.47;16.10;;;;;;;;;;5089711;28;20044;-88
2021/10/10 03:00:04;;;;;;;33.63;16.77;;;;;;;;;;5089818;28;20021;-87
2021/10/10 03:02:30;;;;;;;33.73;16.17;;;;;;;;;;5055709;28;20597;-87
2021/10/10 03:04:55;;;;;;;32.93;16.03;;;;;;;;;;5089408;28;20052;-88
2021/10/10 03:07:20;;;;;;;29.67;16.07;;;;;;;;;;5056088;28;20052;-87
2021/10/10 03:09:45;;;;;;;32.10;16.43;;;;;;;;;;5089202;28;20047;-88
2021/10/10 03:12:10;;;;;;;36.10;16.83;;;;;;;;;;5089770;28;20032;-87
2021/10/10 03:14:36;;;;;;;33.40;16.50;;;;;;;;;;5055756;28;20411;-88
2021/10/10 03:17:01;;;;;;;31.70;15.63;;;;;;;;;;5073920;28;20099;-88
2021/10/10 03:19:26;;;;;;;31.47;15.47;;;;;;;;;;5073854;28;20019;-88
2021/10/10 03:21:51;;;;;;;32.30;16.37;;;;;;;;;;5054895;28;20020;-88
2021/10/10 03:24:16;;;;;;;34.93;17.13;;;;;;;;;;5089394;28;20027;-88
2021/10/10 03:26:42;;;;;;;36.87;17.87;;;;;;;;;;5055757;28;20020;-88
2021/10/10 03:29:07;;;;;;;32.07;16.23;;;;;;;;;;5089378;28;20514;-88
2021/10/10 03:31:32;;;;;;;36.20;16.57;;;;;;;;;;5073341;28;20054;-88
2021/10/10 03:33:57;;;;;;;32.87;16.70;;;;;;;;;;5055438;28;20019;-88
2021/10/10 03:36:22;;;;;;;34.50;16.57;;;;;;;;;;5073816;28;20021;-88
2021/10/10 03:38:48;;;;;;;30.63;15.70;;;;;;;;;;5073853;28;20016;-88
2021/10/10 03:41:13;;;;;;;35.27;16.30;;;;;;;;;;5089136;28;20036;-88
2021/10/10 03:43:38;;;;;;;31.83;15.97;;;;;;;;;;5073341;28;20418;-88
2021/10/10 03:46:04;;;;;;;32.07;15.80;;;;;;;;;;5088906;28;20046;-88
2021/10/10 03:48:29;;;;;;;29.83;15.73;;;;;;;;;;5073303;28;20059;-88
2021/10/10 03:50:54;;;;;;;27.83;15.70;;;;;;;;;;5054781;28;20025;-87
2021/10/10 03:53:25;;;;;;;27.97;15.40;;;;;;;;;;5073440;28;20100;-88
2021/10/10 03:55:51;;;;;;;30.10;15.90;;;;;;;;;;5089132;28;20040;-87
2021/10/10 03:58:17;;;;;;;31.60;17.20;;;;;;;;;;5088887;28;20051;-87
2021/10/10 04:00:42;;;;;;;30.03;16.63;;;;;;;;;;5055393;28;20503;-88
2021/10/10 04:03:09;;;;;;;30.70;15.93;;;;;;;;;;5073292;28;20019;-88
2021/10/10 04:08:00;;;;;;;27.53;15.50;;;;;;;;;;5073368;28;20078;-88
2021/10/10 04:10:26;;;;;;;30.23;15.80;;;;;;;;;;5088499;28;20494;-88
2021/10/10 04:12:51;;;;;;;32.27;16.10;;;;;;;;;;5088935;28;20016;-87
2021/10/10 04:15:17;;;;;;;30.43;15.80;;;;;;;;;;5088385;28;20023;-87
2021/10/10 04:17:42;;;;;;;30.23;15.60;;;;;;;;;;5088547;28;20024;-87
2021/10/10 04:20:11;;;;;;;30.57;16.03;;;;;;;;;;5073119;28;20092;-87
2021/10/10 04:22:37;;;;;;;31.73;16.57;;;;;;;;;;5078172;28;20116;-87
2021/10/10 04:25:02;;;;;;;29.83;16.17;;;;;;;;;;5050927;28;20103;-87
2021/10/10 04:27:28;;;;;;;31.13;15.73;;;;;;;;;;5055130;28;20025;-88
2021/10/10 04:29:53;;;;;;;33.23;16.27;;;;;;;;;;5072879;28;20021;-88
2021/10/10 04:32:18;;;;;;;34.30;15.73;;;;;;;;;;5088135;28;20020;-87
2021/10/10 04:34:43;;;;;;;28.07;14.40;;;;;;;;;;5076133;28;20410;-88
2021/10/10 04:37:08;;;;;;;26.00;14.27;;;;;;;;;;5092292;28;20066;-87
2021/10/10 04:39:34;;;;;;;29.80;15.37;;;;;;;;;;5076804;28;20013;-88
2021/10/10 04:41:59;;;;;;;34.17;14.97;;;;;;;;;;5090928;28;20254;-88
2021/10/10 04:44:25;;;;;;;30.97;15.33;;;;;;;;;;5076577;28;20107;-88
2021/10/10 04:46:50;;;;;;;28.83;15.13;;;;;;;;;;5092035;28;20078;-88
2021/10/10 04:49:16;;;;;;;28.30;14.73;;;;;;;;;;5058494;28;20031;-87
2021/10/10 04:51:41;;;;;;;31.57;14.73;;;;;;;;;;5092122;28;20034;-88
2021/10/10 04:54:06;;;;;;;30.40;14.97;;;;;;;;;;5092392;28;20111;-88
2021/10/10 04:56:31;;;;;;;28.63;15.23;;;;;;;;;;5086774;28;20013;-88
2021/10/10 04:58:56;;;;;;;27.43;14.77;;;;;;;;;;5067801;28;20017;-87
2021/10/10 05:01:22;;;;;;;25.30;14.00;;;;;;;;;;5091819;28;20023;-88
2021/10/10 05:03:47;;;;;;;26.20;14.07;;;;;;;;;;5092159;28;20017;-87
2021/10/10 05:06:12;;;;;;;26.87;14.80;;;;;;;;;;5087785;28;20067;-87
2021/10/10 05:08:38;;;;;;;27.00;14.27;;;;;;;;;;5076410;28;20012;-88
2021/10/10 05:11:03;;;;;;;31.77;15.43;;;;;;;;;;5091711;28;20020;-88
2021/10/10 05:13:29;;;;;;;29.37;14.73;;;;;;;;;;5091520;28;20008;-87
2021/10/10 05:15:54;;;;;;;25.30;13.90;;;;;;;;;;5058333;28;20181;-87
2021/10/10 05:18:19;;;;;;;28.70;15.33;;;;;;;;;;5091344;28;20173;-87
2021/10/10 05:20:45;;;;;;;27.17;14.73;;;;;;;;;;5081768;28;20067;-87
2021/10/10 05:23:14;;;;;;;28.47;14.93;;;;;;;;;;5054165;28;20423;-88
2021/10/10 05:25:40;;;;;;;29.30;15.40;;;;;;;;;;5087563;28;20150;-87
2021/10/10 05:28:05;;;;;;;26.93;14.80;;;;;;;;;;5053348;28;20464;-88
2021/10/10 05:30:30;;;;;;;29.07;15.20;;;;;;;;;;5082095;28;20017;-87
2021/10/10 05:32:55;;;;;;;27.27;14.97;;;;;;;;;;5057174;28;20043;-88
2021/10/10 05:35:20;;;;;;;26.20;14.07;;;;;;;;;;5084450;28;20099;-87
2021/10/10 05:37:46;;;;;;;27.83;14.50;;;;;;;;;;5087347;28;20017;-88
2021/10/10 05:40:11;;;;;;;29.07;15.43;;;;;;;;;;5090466;28;20488;-87
2021/10/10 05:42:38;;;;;;;28.50;14.53;;;;;;;;;;5074968;28;20025;-87
2021/10/10 05:45:03;;;;;;;27.10;14.53;;;;;;;;;;5056432;28;20025;-87
2021/10/10 05:47:28;;;;;;;28.03;14.67;;;;;;;;;;5082031;28;20389;-87
2021/10/10 05:49:54;;;;;;;28.53;14.93;;;;;;;;;;5077764;28;20059;-88
2021/10/10 05:52:23;;;;;;;26.30;13.83;;;;;;;;;;5053008;28;20029;-88
2021/10/10 05:54:48;;;;;;;25.43;14.73;;;;;;;;;;5074941;28;20017;-88
2021/10/10 05:57:16;;;;;;;24.93;14.30;;;;;;;;;;5083844;28;20025;-88
2021/10/10 05:59:42;;;;;;;28.27;15.23;;;;;;;;;;5055765;28;20353;-88
2021/10/10 06:02:07;;;;;;;23.20;13.90;;;;;;;;;;5057428;28;20034;-88
2021/10/10 06:04:32;;;;;;;27.17;15.37;;;;;;;;;;5074308;28;20024;-87
2021/10/10 06:06:58;;;;;;;26.03;14.77;;;;;;;;;;5074634;28;20103;-88
2021/10/10 06:09:23;;;;;;;27.13;15.50;;;;;;;;;;5081389;28;20025;-86
2021/10/10 06:11:48;;;;;;;25.83;15.80;;;;;;;;;;5074150;28;20024;-87
2021/10/10 06:14:13;;;;;;;27.30;15.07;;;;;;;;;;5090700;28;20360;-87
2021/10/10 06:16:39;;;;;;;26.93;14.60;;;;;;;;;;5076461;28;20012;-87
2021/10/10 06:19:04;;;;;;;23.47;14.10;;;;;;;;;;5057209;28;20028;-87
2021/10/10 06:21:29;;;;;;;24.07;14.37;;;;;;;;;;5084517;28;20116;-87
2021/10/10 06:23:55;;;;;;;22.10;13.10;;;;;;;;;;5056901;28;20024;-87
2021/10/10 06:26:21;;;;;;;25.20;14.73;;;;;;;;;;5083877;28;20056;-87
2021/10/10 06:28:46;;;;;;;23.00;13.20;;;;;;;;;;5055382;28;20044;-87
2021/10/10 06:31:11;;;;;;;25.50;14.03;;;;;;;;;;5084989;28;20460;-88
2021/10/10 06:33:36;;;;;;;26.37;14.93;;;;;;;;;;5050719;28;20027;-87
2021/10/10 06:36:01;;;;;;;24.57;14.10;;;;;;;;;;5055800;28;20029;-87
2021/10/10 06:38:27;;;;;;;22.47;12.97;;;;;;;;;;5074313;28;20418;-87
2021/10/10 06:40:52;;;;;;;30.93;16.57;;;;;;;;;;5091510;28;20112;-87
2021/10/10 06:43:17;;;;;;;27.03;14.80;;;;;;;;;;5074472;28;20019;-87
2021/10/10 06:45:42;;;;;;;25.10;14.17;;;;;;;;;;5064167;28;20423;-87
2021/10/10 06:48:07;;;;;;;28.13;15.20;;;;;;;;;;5090340;28;20027;-87
2021/10/10 06:50:33;;;;;;;24.53;14.20;;;;;;;;;;5091056;28;20028;-92
2021/10/10 06:52:58;;;;;;;26.47;15.87;;;;;;;;;;5060304;28;20478;-89
2021/10/10 06:55:23;;;;;;;26.03;14.53;;;;;;;;;;5068262;28;20017;-89
2021/10/10 06:57:48;;;;;;;26.07;14.87;;;;;;;;;;5056861;28;20020;-89
2021/10/10 07:00:14;;;;;;;25.77;14.60;;;;;;;;;;5094622;28;20375;-89
2021/10/10 07:02:42;;;;;;;24.80;14.03;;;;;;;;;;5064131;28;20364;-88
2021/10/10 07:05:11;;;;;;;24.83;14.77;;;;;;;;;;5065632;28;20021;-88
2021/10/10 07:07:36;;;;;;;25.23;14.83;;;;;;;;;;5094145;28;20026;-89
2021/10/10 07:10:02;;;;;;;23.97;13.97;;;;;;;;;;5058790;28;20103;-89
2021/10/10 07:12:28;;;;;;;22.27;13.13;;;;;;;;;;5082771;28;20021;-89
2021/10/10 07:14:53;;;;;;;25.27;15.07;;;;;;;;;;5093193;28;20071;-89
2021/10/10 07:17:18;;;;;;;22.90;13.50;;;;;;;;;;5074354;28;20384;-89
2021/10/10 07:19:50;;;;;;;22.52;13.25;;;;;;;;;;5056533;28;20016;-88
2021/10/10 07:22:27;;;;;;;21.13;13.48;;;;;;;;;;5080707;28;20021;-90
2021/10/10 07:24:56;;;;;;;19.35;12.70;;;;;;;;;;5085636;28;20032;-90
2021/10/10 07:27:22;;;;;;;22.33;13.40;;;;;;;;;;5056169;28;20032;-89
2021/10/10 07:29:48;;;;;;;22.52;13.15;;;;;;;;;;5056310;28;20078;-89
2021/10/10 07:32:13;;;;;;;26.70;15.07;;;;;;;;;;5087620;28;20016;-89
2021/10/10 07:34:38;;;;;;;26.70;14.75;;;;;;;;;;5055973;28;20020;-89
2021/10/10 07:37:03;;;;;;;28.07;14.97;;;;;;;;;;5058508;28;20017;-89
2021/10/10 07:39:28;;;;;;;27.53;15.60;;;;;;;;;;5082051;28;20035;-90
2021/10/10 07:41:54;;;;;;;26.17;15.03;;;;;;;;;;5061024;28;20119;-88
2021/10/10 07:44:19;;;;;;;25.33;15.80;;;;;;;;;;5090163;28;20090;-89
2021/10/10 07:46:54;;;;;;;25.20;16.30;;;;;;;;;;5085822;28;20028;-89
2021/10/10 07:49:19;;;;;;;26.10;15.10;;;;;;;;;;5054076;28;20077;-90
2021/10/10 07:51:44;;;;;;;26.17;16.00;;;;;;;;;;5058257;28;20437;-89
2021/10/10 07:54:10;;;;;;;26.50;16.27;;;;;;;;;;5055625;28;20028;-89
2021/10/10 07:56:36;;;;;;;26.80;15.47;;;;;;;;;;5060257;28;20376;-89
2021/10/10 07:59:01;;;;;;;27.37;15.37;;;;;;;;;;5055662;28;20108;-89
2021/10/10 08:01:26;;;;;;;30.47;17.47;;;;;;;;;;5062939;28;20094;-89
2021/10/10 08:03:52;;;;;;;30.03;16.53;;;;;;;;;;5062194;28;20113;-89
2021/10/10 08:06:17;;;;;;;28.53;16.40;;;;;;;;;;5089783;28;20029;-89
2021/10/10 08:08:42;;;;;;;28.13;16.87;;;;;;;;;;5074586;28;20024;-89
2021/10/10 08:11:07;;;;;;;29.47;16.87;;;;;;;;;;5059933;28;20028;-89
2021/10/10 08:13:32;;;;;;;26.80;16.53;;;;;;;;;;5075781;28;20012;-90
2021/10/10 08:15:58;;;;;;;31.40;17.50;;;;;;;;;;5089427;28;20013;-89
2021/10/10 08:18:23;;;;;;;30.07;17.27;;;;;;;;;;5089238;28;20087;-89
2021/10/10 08:20:48;;;;;;;30.20;17.20;;;;;;;;;;5060136;28;20096;-88
2021/10/10 08:23:13;;;;;;;34.20;19.13;;;;;;;;;;5086228;28;20103;-88
2021/10/10 08:25:39;;;;;;;31.57;16.60;;;;;;;;;;5063600;28;20165;-89
2021/10/10 08:28:04;;;;;;;29.60;17.60;;;;;;;;;;5055132;28;20099;-89
2021/10/10 08:30:30;;;;;;;29.00;17.30;;;;;;;;;;5072998;28;20662;-89
2021/10/10 08:32:55;;;;;;;32.40;17.13;;;;;;;;;;5097448;28;20016;-89
2021/10/10 08:35:20;;;;;;;28.20;16.87;;;;;;;;;;5062192;28;20016;-89
2021/10/10 08:37:46;;;;;;;31.10;18.33;;;;;;;;;;5063429;28;20027;-89
2021/10/10 08:40:12;;;;;;;35.03;18.87;;;;;;;;;;5068685;28;20471;-90
2021/10/10 08:42:39;;;;;;;33.63;18.80;;;;;;;;;;5061232;28;20026;-91
2021/10/10 08:45:10;;;;;;;34.00;18.70;;;;;;;;;;5056952;28;20074;-90
2021/10/10 08:47:43;;;;;;;35.63;19.70;;;;;;;;;;5067180;28;20107;-89
2021/10/10 08:50:28;;;;;;;33.30;19.53;;;;;;;;;;5095922;28;20021;-89
2021/10/10 08:52:59;;;;;;;33.93;19.00;;;;;;;;;;5093849;28;20446;-89
2021/10/10 08:55:25;;;;;;;34.10;19.77;;;;;;;;;;5070870;28;20422;-90
2021/10/10 08:57:51;;;;;;;31.60;18.03;;;;;;;;;;5065836;28;20044;-90
2021/10/10 09:00:20;;;;;;;38.30;20.57;;;;;;;;;;5077660;28;20043;-89
2021/10/10 09:02:50;;;;;;;34.85;19.20;;;;;;;;;;5065014;28;20044;-89
2021/10/10 09:05:16;;;;;;;40.57;21.93;;;;;;;;;;5054673;28;20044;-89
2021/10/10 09:07:43;;;;;;;38.05;20.67;;;;;;;;;;5056088;28;20377;-88
2021/10/10 09:10:31;;;;;;;33.23;20.27;;;;;;;;;;5072015;28;20066;-88
2021/10/10 09:13:07;;;;;;;34.33;19.70;;;;;;;;;;5065457;28;20095;-87
2021/10/10 09:15:37;;;;;;;41.20;21.50;;;;;;;;;;5057423;28;20472;-87
2021/10/10 09:18:03;;;;;;;39.97;20.33;;;;;;;;;;5087768;28;20021;-87
2021/10/10 09:20:32;;;;;;;35.25;18.52;;;;;;;;;;5085599;28;20023;-87
2021/10/10 09:22:59;;;;;;;37.72;19.80;;;;;;;;;;5093369;28;20110;-90
2021/10/10 09:25:24;;;;;;;37.35;20.27;;;;;;;;;;5062952;28;20020;-89
2021/10/10 09:27:49;;;;;;;36.95;20.75;;;;;;;;;;5097831;28;20027;-89
2021/10/10 09:30:17;;;;;;;36.17;19.70;;;;;;;;;;5102237;28;20027;-88
2021/10/10 09:32:44;;;;;;;40.38;21.33;;;;;;;;;;5061564;28;20016;-88
2021/10/10 09:35:21;;;;;;;35.55;19.35;;;;;;;;;;5093918;28;20115;-87
2021/10/10 09:37:49;;;;;;;50.00;23.27;;;;;;;;;;5063206;28;20380;-87
2021/10/10 09:40:27;;;;;;;43.70;22.17;;;;;;;;;;5057540;28;20020;-89
2021/10/10 09:42:59;;;;;;;51.40;24.25;;;;;;;;;;5098027;28;20387;-88
2021/10/10 09:45:38;;;;;;;;;;;;;;;;;;5060193;28;20017;-87
2021/10/10 09:48:04;;;;;;;46.15;21.98;;;;;;;;;;5057290;28;19991;-88
2021/10/10 09:50:31;;;;;;;46.67;23.27;;;;;;;;;;5092829;28;20182;-88
2021/10/10 09:52:58;;;;;;;48.03;23.35;;;;;;;;;;5065852;28;20027;-87
2021/10/10 09:55:23;;;;;;;54.90;26.70;;;;;;;;;;5057204;28;20021;-88
2021/10/10 09:57:49;;;;;;;55.90;26.92;;;;;;;;;;5079397;28;20019;-87
2021/10/10 10:00:21;;;;;;;53.83;25.73;;;;;;;;;;5084952;28;20111;-87
2021/10/10 10:02:48;;;;;;;;;;;;;;;;;;5077287;28;20506;-87
2021/10/10 10:05:26;;;;;;;64.22;28.80;;;;;;;;;;5086291;28;19912;-87
2021/10/10 10:07:52;;;;;;;64.85;30.30;;;;;;;;;;5062351;28;20404;-87
2021/10/10 10:10:18;;;;;;;62.65;29.42;;;;;;;;;;5056938;28;20107;-88
2021/10/10 10:12:43;;;;;;;67.60;29.63;;;;;;;;;;5065462;28;20107;-87
2021/10/10 10:15:09;;;;;;;59.22;28.83;;;;;;;;;;5056883;28;20070;-88
2021/10/10 10:17:34;;;;;;;62.55;28.92;;;;;;;;;;5086422;28;20012;-88
2021/10/10 10:20:00;;;;;;;59.00;26.40;;;;;;;;;;5057707;28;20495;-88
2021/10/10 10:22:26;;;;;;;59.22;28.42;;;;;;;;;;5056914;28;20112;-87
2021/10/10 10:24:52;;;;;;;63.03;28.77;;;;;;;;;;5056366;28;20056;-90
2021/10/10 10:27:17;;;;;;;62.40;29.70;;;;;;;;;;5097416;28;20042;-91
2021/10/10 10:29:46;;;;;;;65.03;30.30;;;;;;;;;;5075219;28;20353;-90
2021/10/10 10:32:14;;;;;;;68.68;30.20;;;;;;;;;;5060262;28;20024;-90
2021/10/10 10:34:55;;;;;;;67.28;28.75;;;;;;;;;;5079676;28;20023;-90
2021/10/10 10:37:20;;;;;;;69.47;29.45;;;;;;;;;;5069679;28;20543;-90
2021/10/10 10:39:47;;;;;;;66.88;32.10;;;;;;;;;;5073970;28;20016;-91
2021/10/10 10:42:33;;;;;;;70.28;29.95;;;;;;;;;;5058597;28;20027;-89
2021/10/10 10:44:58;;;;;;;70.15;30.25;;;;;;;;;;5078847;28;20036;-88
2021/10/10 10:47:35;;;;;;;66.25;29.98;;;;;;;;;;5089481;28;20383;-88
2021/10/10 10:50:04;;;;;;;65.72;29.20;;;;;;;;;;5094262;28;20078;-88
2021/10/10 10:52:33;;;;;;;69.03;30.65;;;;;;;;;;5062162;28;20021;-88
2021/10/10 10:55:16;;;;;;;78.10;33.38;;;;;;;;;;5056784;28;20384;-89
2021/10/10 10:57:46;;;;;;;78.30;35.63;;;;;;;;;;5072907;28;20012;-89
2021/10/10 11:00:25;;;;;;;67.95;30.52;;;;;;;;;;5103505;28;20054;-89
2021/10/10 11:03:02;;;;;;;62.35;28.02;;;;;;;;;;5051788;28;20020;-89
2021/10/10 11:05:46;;;;;;;55.42;25.13;;;;;;;;;;5059216;28;20020;-89
2021/10/10 11:08:30;;;;;;;69.10;27.58;;;;;;;;;;5056454;28;20016;-86
2021/10/10 11:11:07;;;;;;;63.63;28.20;;;;;;;;;;5066921;28;20027;-87
2021/10/10 11:13:35;;;;;;;58.08;28.05;;;;;;;;;;5073280;28;20154;-88
2021/10/10 11:16:03;;;;;;;67.57;29.98;;;;;;;;;;5058064;28;20031;-88
2021/10/10 11:18:29;;;;;;;64.45;30.20;;;;;;;;;;5047658;28;20345;-88
2021/10/10 11:20:55;;;;;;;59.10;27.13;;;;;;;;;;5055727;28;20027;-89
2021/10/10 11:23:22;;;;;;;66.68;28.73;;;;;;;;;;5087569;28;20041;-88
2021/10/10 11:25:49;;;;;;;65.28;29.98;;;;;;;;;;5073507;28;20020;-88
2021/10/10 11:28:15;;;;;;;71.35;32.40;;;;;;;;;;5058969;28;20143;-88
2021/10/10 11:30:40;;;;;;;73.55;33.33;;;;;;;;;;5054728;28;20494;-88
2021/10/10 11:33:06;;;;;;;64.13;29.40;;;;;;;;;;5057833;28;20099;-88
2021/10/10 11:35:31;;;;;;;65.72;29.83;;;;;;;;;;5055067;28;20016;-88
2021/10/10 11:38:00;;;;;;;68.13;30.55;;;;;;;;;;5054909;28;20044;-88
2021/10/10 11:40:25;;;;;;;57.65;26.30;;;;;;;;;;5070603;28;20346;-88
2021/10/10 11:42:53;;;;;;;61.83;27.85;;;;;;;;;;5088128;28;20471;-88
2021/10/10 11:45:25;;;;;;;55.42;23.55;;;;;;;;;;5088959;28;20029;-89
2021/10/10 11:47:51;;;;;;;58.70;26.02;;;;;;;;;;5054481;28;20059;-89
2021/10/10 11:50:16;;;;;;;53.92;24.75;;;;;;;;;;5055198;28;20064;-89
2021/10/10 11:52:48;;;;;;;60.65;27.30;;;;;;;;;;5080593;28;20016;-88
2021/10/10 11:57:43;;;;;;;56.10;23.55;;;;;;;;;;5078163;28;20028;-88
2021/10/10 12:00:09;;;;;;;53.92;22.88;;;;;;;;;;5081086;28;20487;-89
2021/10/10 12:02:35;;;;;;;55.70;21.58;;;;;;;;;;5060392;28;20020;-89
2021/10/10 12:05:05;;;;;;;48.60;23.20;;;;;;;;;;5083355;28;20656;-89
2021/10/10 12:07:31;;;;;;;50.95;21.65;;;;;;;;;;5072791;28;20066;-89
2021/10/10 12:09:56;;;;;;;37.70;16.50;;;;;;;;;;5054421;28;20736;-89
2021/10/10 12:12:21;;;;;;;45.95;22.92;;;;;;;;;;5083865;28;20028;-89
2021/10/10 12:14:48;;;;;;;46.05;21.98;;;;;;;;;;5086961;28;20020;-88
2021/10/10 12:17:26;;;;;;;41.38;20.35;;;;;;;;;;5088052;28;20365;-88
2021/10/10 12:19:51;;;;;;;51.22;22.70;;;;;;;;;;5072591;28;20476;-88
2021/10/10 12:22:16;;;;;;;43.80;21.70;;;;;;;;;;5074276;28;20024;-88
2021/10/10 12:24:43;;;;;;;43.78;19.17;;;;;;;;;;5054517;28;20032;-88
2021/10/10 12:27:09;;;;;;;52.30;20.13;;;;;;;;;;5084224;28;20387;-88
2021/10/10 12:29:36;;;;;;;53.65;23.38;;;;;;;;;;5049664;28;20024;-88
2021/10/10 12:32:21;;;;;;;54.05;22.98;;;;;;;;;;5054135;28;20033;-89
2021/10/10 12:34:47;;;;;;;51.47;22.67;;;;;;;;;;5087835;28;20017;-88
2021/10/10 12:37:16;;;;;;;46.08;21.20;;;;;;;;;;5091842;28;20016;-88
2021/10/10 12:39:41;;;;;;;57.95;23.95;;;;;;;;;;5082105;28;20742;-87
2021/10/10 12:42:07;;;;;;;41.60;20.00;;;;;;;;;;5058407;28;20025;-87
2021/10/10 12:44:32;;;;;;;53.30;25.02;;;;;;;;;;5058515;28;20082;-88
2021/10/10 12:46:57;;;;;;;59.20;24.63;;;;;;;;;;5079274;28;20032;-87
2021/10/10 12:49:36;;;;;;;57.10;21.23;;;;;;;;;;5088683;28;20369;-87
2021/10/10 12:52:03;;;;;;;50.58;22.80;;;;;;;;;;5073365;28;20032;-87
2021/10/10 12:54:29;;;;;;;53.67;23.92;;;;;;;;;;5088705;28;20024;-87
2021/10/10 12:57:08;;;;;;;53.70;22.65;;;;;;;;;;5091951;28;20020;-88
2021/10/10 12:59:34;;;;;;;50.17;21.25;;;;;;;;;;5054224;28;20016;-87
2021/10/10 13:01:59;;;;;;;51.90;21.40;;;;;;;;;;5100101;28;20028;-88
2021/10/10 13:04:25;;;;;;;49.03;21.10;;;;;;;;;;5057575;28;20028;-87
2021/10/10 13:06:50;;;;;;;57.00;23.33;;;;;;;;;;5059216;28;20033;-88
2021/10/10 13:09:17;;;;;;;48.13;20.60;;;;;;;;;;5091521;28;20036;-88
2021/10/10 13:11:42;;;;;;;50.60;21.95;;;;;;;;;;5075535;28;20654;-88
2021/10/10 13:14:08;;;;;;;41.58;19.02;;;;;;;;;;5091334;28;20055;-87
2021/10/10 13:16:33;;;;;;;53.40;21.83;;;;;;;;;;5057678;28;20034;-88
2021/10/10 13:18:58;;;;;;;43.88;18.77;;;;;;;;;;5057265;28;20102;-88
2021/10/10 13:21:23;;;;;;;49.67;20.45;;;;;;;;;;5078202;28;20029;-86
2021/10/10 13:23:49;;;;;;;38.85;18.52;;;;;;;;;;5066512;28;20016;-88
2021/10/10 13:26:14;;;;;;;50.78;23.10;;;;;;;;;;5087562;28;20055;-88
2021/10/10 13:28:39;;;;;;;44.47;18.08;;;;;;;;;;5057525;28;20040;-88
2021/10/10 13:31:05;;;;;;;50.90;24.17;;;;;;;;;;5093651;28;20029;-88
2021/10/10 13:33:31;;;;;;;53.13;22.33;;;;;;;;;;5087830;28;20020;-87
2021/10/10 13:36:00;;;;;;;37.78;16.52;;;;;;;;;;5085939;28;20016;-87
2021/10/10 13:38:26;;;;;;;45.97;20.20;;;;;;;;;;5060871;28;20115;-87
2021/10/10 13:40:51;;;;;;;44.63;20.55;;;;;;;;;;5091264;28;20059;-88
2021/10/10 13:43:17;;;;;;;42.22;19.02;;;;;;;;;;5082060;28;20016;-88
2021/10/10 13:45:42;;;;;;;50.67;22.55;;;;;;;;;;5061286;28;20051;-87
2021/10/10 13:48:08;;;;;;;49.75;21.10;;;;;;;;;;5088650;28;20112;-87
2021/10/10 13:50:34;;;;;;;43.33;19.10;;;;;;;;;;5060244;28;20024;-88
2021/10/10 13:53:00;;;;;;;42.28;19.20;;;;;;;;;;5057771;28;20027;-88
2021/10/10 13:55:25;;;;;;;45.47;19.00;;;;;;;;;;5057124;28;20021;-88
2021/10/10 13:57:50;;;;;;;45.28;19.80;;;;;;;;;;5086768;28;20463;-89
2021/10/10 14:00:15;;;;;;;43.08;18.13;;;;;;;;;;5077234;28;20014;-89
2021/10/10 14:02:41;;;;;;;37.70;16.52;;;;;;;;;;5083050;28;20502;-88
2021/10/10 14:05:06;;;;;;;37.33;17.75;;;;;;;;;;5095830;28;20028;-89
2021/10/10 14:07:31;;;;;;;44.45;19.52;;;;;;;;;;5056845;28;20426;-88
2021/10/10 14:09:56;;;;;;;39.92;19.23;;;;;;;;;;5074721;28;20048;-89
2021/10/10 14:12:22;;;;;;;44.60;21.38;;;;;;;;;;5057322;28;20035;-89
2021/10/10 14:14:47;;;;;;;46.42;20.83;;;;;;;;;;5067745;28;20491;-89
2021/10/10 14:17:12;;;;;;;50.67;23.40;;;;;;;;;;5090064;28;20435;-89
2021/10/10 14:19:37;;;;;;;50.30;21.20;;;;;;;;;;5063542;28;20353;-89